Alpine, Alabama
Current Conditions -  °F | °C
As of 9:15 AM on Wednesday 22 Oct 2014 (Local Time) from KSCD Reporting Station
Clear Clear  
Wind Chill: 13°   Ceiling: Unl
Heat Index: 13°   Visibility: 10mi
Dew Point:   Wind: 8mph
Humidity: 73%   Direction: 50°NE
Pressure: 30.17"   Gusts: NA
Location:  33.34°N, 86.23°W
Report Text: KSCD 221415Z AUTO 05007KT 10SM CLR 13/08 A3017 RMK AO2 T01310084
Loading
Personal Weather Stations






























Interactive Weather Map
Tropical Storm Tracking
New forecast layout! Learn more

10-Day Weather Forecast

Advertisements
Track Severe Weather on mobile